• Join FlightAware (Why Join?)
  • Login
  • US Flag 
01:13AM EDT


 

Airport Tracker/Info


-or-


 

Live Flight TrackerFlight Track Log ✈ SWA896 ✈ 25-Apr-2013 ✈ KBUF - KLAS

Flight Track Log - Related Links

Times and Time Zones

All times are in EDT time to prevent confusion due to time zone crossing. See the SWA896 flight status page for this flight to view local times or setup timezone preferences in your user account.

Time Position Orientation Groundspeed Altitude Reporting Facility
EDT Latitude Longitude Course Direction KTS MPH feet Rate Location/Type
08:09AM 42.9333 -78.7500 200° South 167 192 1,600  Level Buffalo TRACON
08:10AM 42.9000 -78.7667 200° South 165 190 2,600 1,980 Climbing Buffalo TRACON
08:12AM 42.8097 -78.8428 212° Southwest 294 338 6,300 2,520 Climbing Cleveland Center
08:13AM 42.7289 -78.8761 197° South 294 338 9,600 2,400 Climbing Cleveland Center
08:14AM 42.6503 -78.9092 197° South 285 328 11,200 1,740 Climbing Cleveland Center
08:15AM 42.5592 -78.9539 200° South 322 371 13,100 2,100 Climbing Cleveland Center
08:16AM 42.4600 -79.0072 202° Southwest 361 415 15,500 2,220 Climbing Cleveland Center
08:17AM 42.4219 -79.1319 248° West 347 399 17,600 2,160 Climbing Cleveland Center
08:18AM 42.4153 -79.2725 266° West 341 392 19,900 2,100 Climbing Cleveland Center
08:19AM 42.4042 -79.4106 264° West 360 414 21,900 1,800 Climbing Cleveland Center
08:20AM 42.3972 -79.5400 266° West 387 445 23,500 1,500 Climbing Cleveland Center
08:21AM 42.3881 -79.6864 265° West 387 445 25,000 1,320 Climbing Cleveland Center
08:22AM 42.3764 -79.8328 264° West 387 445 26,200 1,800 Climbing Cleveland Center
08:23AM 42.3650 -80.0014 265° West 401 461 28,600 1,860 Climbing Cleveland Center
08:24AM 42.3531 -80.1419 263° West 395 455 30,000 1,260 Climbing Cleveland Center
08:25AM 42.3411 -80.2797 263° West 384 442 31,200 1,080 Climbing Cleveland Center
08:26AM 42.3289 -80.4258 264° West 390 449 32,200 900 Climbing Cleveland Center
08:27AM 42.3186 -80.5550 264° West 388 447 33,000 900 Climbing Cleveland Center
08:28AM 42.3081 -80.6983 264° West 388 447 34,000 480 Climbing Cleveland Center
08:29AM 42.2972 -80.8386 264° West 380 437 34,000  Level Cleveland Center
08:30AM 42.2864 -80.9817 264° West 380 437 34,000  Level Cleveland Center
08:31AM 42.2714 -81.1164 261° West 380 437 34,000  Level Cleveland Center
08:32AM 42.2622 -81.2594 265° West 380 437 34,000  Level Cleveland Center
08:33AM 42.2467 -81.3994 262° West 385 443 34,000  Level Cleveland Center
08:34AM 42.2353 -81.5422 264° West 391 450 34,000  Level Cleveland Center
08:35AM 42.2214 -81.6992 263° West 385 443 34,000  Level Cleveland Center
08:36AM 42.2075 -81.8389 262° West 385 443 34,000  Level Cleveland Center
08:37AM 42.1933 -81.9789 262° West 390 449 34,000  Level Cleveland Center
08:38AM 42.1811 -82.1214 263° West 385 443 34,000  Level Cleveland Center
08:39AM 42.1689 -82.2472 263° West 385 443 34,000  Level Cleveland Center
08:40AM 42.1542 -82.3842 262° West 385 443 34,000  Level Cleveland Center
08:41AM 42.1436 -82.5267 264° West 385 443 34,000  Level Cleveland Center
08:42AM 42.1328 -82.6664 264° West 391 450 34,000  Level Cleveland Center
08:43AM 42.1156 -82.8031 260° West 386 444 34,000  Level Cleveland Center
08:44AM 42.1003 -82.9450 262° West 386 444 34,000  Level Cleveland Center
08:45AM 42.0847 -83.0872 262° West 386 444 34,000  Level Cleveland Center
08:46AM 42.0689 -83.2433 262° West 386 444 34,000  Level Cleveland Center
08:47AM 42.0553 -83.3686 262° West 386 444 34,000  Level Cleveland Center
08:48AM 42.0394 -83.5078 261° West 386 444 34,000  Level Cleveland Center
08:49AM 42.0269 -83.6636 264° West 386 444 34,000  Level Cleveland Center
08:50AM 42.0147 -83.8056 263° West 386 444 34,000  Level Cleveland Center
08:51AM 42.0022 -83.9475 263° West 386 444 34,000  Level Cleveland Center
08:52AM 41.9878 -84.0892 262° West 386 444 34,000  Level Cleveland Center
08:54AM 41.9669 -84.3314 263° West 390 449 34,000  Level Chicago Center
08:55AM 41.9547 -84.4706 263° West 390 449 34,000  Level Chicago Center
08:56AM 41.9369 -84.6439 262° West 393 452 34,000  Level Chicago Center
08:57AM 41.9228 -84.7878 263° West 392 451 34,000  Level Chicago Center
08:58AM 41.9092 -84.9319 263° West 391 450 34,000 180 Level Chicago Center
08:59AM 41.8933 -85.0742 262° West 389 448 34,400 480 Climbing Chicago Center
09:00AM 41.8792 -85.2189 263° West 395 455 35,100 720 Climbing Chicago Center
09:01AM 41.8653 -85.3614 263° West 392 451 36,000 420 Climbing Chicago Center
09:02AM 41.8486 -85.5294 262° West 387 445 36,000  Level Chicago Center
09:03AM 41.8347 -85.6703 263° West 387 445 36,000  Level Chicago Center
09:04AM 41.8203 -85.8117 262° West 386 444 36,000  Level Chicago Center
09:05AM 41.8061 -85.9533 262° West 387 445 36,000  Level Chicago Center
09:06AM 41.7911 -86.0956 262° West 387 445 36,000  Level Chicago Center
09:07AM 41.7769 -86.2372 262° West 386 444 36,000  Level Chicago Center
09:08AM 41.7589 -86.4067 262° West 386 444 36,000  Level Chicago Center
09:09AM 41.7450 -86.5497 263° West 388 447 36,000  Level Chicago Center
09:10AM 41.7300 -86.6925 262° West 389 448 36,000  Level Chicago Center
09:11AM 41.7128 -86.8508 262° West 387 445 36,000  Level Chicago Center
09:12AM 41.6981 -86.9942 262° West 389 448 36,000  Level Chicago Center
09:13AM 41.6828 -87.1317 262° West 378 435 36,000  Level Chicago Center
09:14AM 41.6675 -87.2689 262° West 376 433 36,000  Level Chicago Center
09:15AM 41.6514 -87.4061 261° West 375 432 36,000  Level Chicago Center
09:16AM 41.6375 -87.5719 264° West 378 435 36,000  Level Chicago Center
09:17AM 41.6269 -87.7119 264° West 381 438 36,000  Level Chicago Center
09:18AM 41.6150 -87.8492 263° West 377 434 36,000  Level Chicago Center
09:19AM 41.6031 -87.9875 263° West 380 437 36,000  Level Chicago Center
09:20AM 41.5911 -88.1242 263° West 380 437 36,000  Level Chicago Center
09:21AM 41.5778 -88.2897 264° West 380 437 36,000  Level Chicago Center
09:22AM 41.5658 -88.4278 263° West 379 436 36,000  Level Chicago Center
09:23AM 41.5542 -88.5650 264° West 377 434 36,000  Level Chicago Center
09:24AM 41.5414 -88.7031 263° West 378 435 36,000  Level Chicago Center
09:25AM 41.5286 -88.8392 263° West 374 430 36,000  Level Chicago Center
09:27AM 41.5136 -89.0058 263° West 378 435 36,000  Level Chicago Center
09:28AM 41.5011 -89.1433 263° West 378 435 36,000  Level Chicago Center
09:29AM 41.4900 -89.2703 263° West 382 440 36,000  Level Chicago Center
09:30AM 41.4739 -89.4372 263° West 379 436 36,000  Level Chicago Center
09:31AM 41.4606 -89.5767 263° West 380 437 36,000  Level Chicago Center
09:32AM 41.4472 -89.7164 263° West 381 438 36,000  Level Chicago Center
09:33AM 41.4331 -89.8539 262° West 378 435 36,000  Level Chicago Center
09:34AM 41.4203 -89.9903 263° West 375 432 36,000  Level Chicago Center
09:35AM 41.4061 -90.1272 262° West 375 432 36,000  Level Chicago Center
09:36AM 41.3897 -90.2911 262° West 375 432 36,000  Level Chicago Center
09:37AM 41.3756 -90.4261 262° West 371 427 36,000  Level Chicago Center
09:38AM 41.3606 -90.5644 262° West 377 434 36,000  Level Chicago Center
09:40AM 41.3300 -90.8425 262° West 381 438 36,000  Level Chicago Center
09:41AM 41.3111 -91.0097 262° West 381 438 36,000  Level Chicago Center
09:42AM 41.2961 -91.1483 262° West 381 438 36,000  Level Chicago Center
09:43AM 41.2808 -91.2864 262° West 378 435 36,000  Level Chicago Center
09:44AM 41.2661 -91.4147 261° West 376 433 36,000  Level Chicago Center
09:45AM 41.2467 -91.5792 261° West 377 434 36,000  Level Chicago Center
09:46AM 41.2314 -91.7203 262° West 375 432 36,000  Level Chicago Center
09:47AM 41.2142 -91.8539 260° West 372 428 36,000  Level Chicago Center
09:48AM 41.1992 -91.9881 262° West 371 427 36,000  Level Chicago Center
09:49AM 41.1822 -92.1194 260° West 366 421 36,000  Level Chicago Center
09:50AM 41.1664 -92.2514 261° West 366 421 36,000  Level Chicago Center
09:51AM 41.1472 -92.4053 261° West 357 411 36,000  Level Chicago Center
09:52AM 41.1308 -92.5344 260° West 358 412 36,000  Level Chicago Center
09:53AM 41.1144 -92.6619 260° West 356 410 36,000  Level Chicago Center
09:54AM 41.0983 -92.7928 261° West 361 415 36,000  Level Chicago Center
09:55AM 41.0831 -92.9206 261° West 357 411 36,000  Level Chicago Center
09:57AM 41.0628 -93.0789 260° West 363 418 36,000  Level Minneapolis Center
09:58AM 41.0461 -93.2089 260° West 362 417 36,000  Level Minneapolis Center
09:59AM 41.0297 -93.3386 261° West 362 417 36,000  Level Minneapolis Center
10:00AM 41.0114 -93.4694 260° West 364 419 36,000  Level Minneapolis Center
10:01AM 40.9903 -93.6269 260° West 366 421 36,000  Level Minneapolis Center
10:02AM 40.9717 -93.7592 259° West 367 422 36,000  Level Minneapolis Center
10:03AM 40.9561 -93.8892 261° West 364 419 36,000  Level Minneapolis Center
10:04AM 40.9389 -94.0186 260° West 361 415 36,000  Level Minneapolis Center
10:05AM 40.9186 -94.1503 259° West 365 420 36,000  Level Minneapolis Center
10:06AM 40.8956 -94.3056 259° West 363 418 36,000  Level Minneapolis Center
10:07AM 40.8772 -94.4333 259° West 359 413 36,000  Level Minneapolis Center
10:08AM 40.8594 -94.5622 260° West 359 413 36,000  Level Minneapolis Center
10:09AM 40.8386 -94.7094 259° West 359 413 36,000  Level Minneapolis Center
10:10AM 40.8206 -94.8406 260° West 361 415 36,000  Level Minneapolis Center
10:11AM 40.8008 -94.9717 259° West 362 417 36,000  Level Minneapolis Center
10:12AM 40.7814 -95.1033 259° West 364 419 36,000  Level Minneapolis Center
10:13AM 40.7622 -95.2333 259° West 362 417 36,000  Level Minneapolis Center
10:14AM 40.7428 -95.3631 259° West 360 414 36,000  Level Minneapolis Center
10:15AM 40.7239 -95.4942 259° West 360 414 36,000  Level Minneapolis Center
10:16AM 40.7039 -95.6250 259° West 362 417 36,000  Level Minneapolis Center
10:17AM 40.6786 -95.7831 258° West 365 420 36,000  Level Minneapolis Center
10:18AM 40.6594 -95.9108 259° West 359 413 36,000  Level Minneapolis Center
10:19AM 40.6397 -96.0378 258° West 354 407 36,000  Level Minneapolis Center
10:20AM 40.6197 -96.1633 258° West 351 404 36,000  Level Minneapolis Center
10:21AM 40.6006 -96.2892 259° West 350 403 36,000  Level Minneapolis Center
10:22AM 40.5803 -96.4133 258° West 348 400 36,000  Level Minneapolis Center
10:23AM 40.5594 -96.5375 258° West 347 399 36,000  Level Minneapolis Center
10:24AM 40.5356 -96.6864 258° West 346 398 36,000  Level Minneapolis Center
10:25AM 40.5158 -96.8094 258° West 345 397 36,000  Level Minneapolis Center
10:26AM 40.4950 -96.9336 258° West 346 398 36,000  Level Minneapolis Center
10:28AM 40.4756 -97.0558 258° West 344 396 36,000  Level Minneapolis Center
10:29AM 40.4550 -97.1786 258° West 344 396 36,000  Level Minneapolis Center
10:30AM 40.4339 -97.3000 257° West 342 394 36,000  Level Minneapolis Center
10:31AM 40.4119 -97.4369 258° West 343 395 36,000  Level Minneapolis Center
10:32AM 40.3900 -97.5603 257° West 345 397 36,000  Level Minneapolis Center
10:33AM 40.3689 -97.6836 257° West 346 398 36,000  Level Minneapolis Center
10:34AM 40.3469 -97.8069 257° West 346 398 36,000  Level Minneapolis Center
10:35AM 40.3219 -97.9575 258° West 350 403 36,000  Level Minneapolis Center
10:36AM 40.2994 -98.0839 257° West 353 406 36,000  Level Minneapolis Center
10:37AM 40.2775 -98.2103 257° West 355 409 36,000  Level Minneapolis Center
10:38AM 40.2547 -98.3358 257° West 354 407 36,000  Level Minneapolis Center
10:39AM 40.2319 -98.4628 257° West 356 410 36,000  Level Minneapolis Center
10:40AM 40.2094 -98.5894 257° West 356 410 36,000  Level Minneapolis Center
10:41AM 40.1861 -98.7156 256° West 356 410 36,000  Level Minneapolis Center
10:42AM 40.1586 -98.8672 257° West 356 410 36,000  Level Minneapolis Center
10:42AM 40.1536 -98.8936 256° West 356 410 36,000  Level Denver Center
10:43AM 40.1308 -99.0194 257° West 357 411 36,000  Level Denver Center
10:44AM 40.1067 -99.1469 256° West 359 413 36,000  Level Denver Center
10:45AM 40.0792 -99.2978 257° West 357 411 36,000  Level Denver Center
10:46AM 40.0553 -99.4239 256° West 357 411 36,000  Level Denver Center
10:47AM 40.0306 -99.5517 256° West 359 413 36,000  Level Denver Center
10:49AM 40.0061 -99.6783 256° West 360 414 36,000  Level Denver Center
10:50AM 39.9817 -99.8075 256° West 364 419 36,000  Level Denver Center
10:51AM 39.9561 -99.9358 255° West 364 419 36,000  Level Denver Center
10:52AM 39.9292 -100.0625 255° West 364 419 36,000  Level Denver Center
10:53AM 39.9008 -100.2228 257° West 374 430 36,000  Level Denver Center
10:54AM 39.8750 -100.3553 256° West 371 427 36,000  Level Denver Center
10:55AM 39.8492 -100.4789 255° West 370 426 36,000  Level Denver Center
10:56AM 39.8206 -100.6222 255° West 368 423 36,000  Level Denver Center
10:57AM 39.7961 -100.7469 256° West 370 426 36,000  Level Denver Center
10:58AM 39.7706 -100.8703 255° West 370 426 36,000  Level Denver Center
10:59AM 39.7422 -101.0147 256° West 370 426 36,000  Level Denver Center
11:00AM 39.7164 -101.1361 255° West 366 421 36,000  Level Denver Center
11:01AM 39.6872 -101.2797 255° West 364 419 36,000  Level Denver Center
11:02AM 39.6625 -101.3997 255° West 359 413 36,000  Level Denver Center
11:03AM 39.6342 -101.5378 255° West 353 406 36,000  Level Denver Center
11:04AM 39.6081 -101.6547 254° West 353 406 36,000  Level Denver Center
11:05AM 39.5797 -101.7922 255° West 353 406 36,000  Level Denver Center
11:06AM 39.5550 -101.9081 255° West 350 403 36,000  Level Denver Center
11:07AM 39.5261 -102.0453 255° West 352 405 36,000  Level Denver Center
11:08AM 39.5058 -102.1414 255° West 350 403 36,000  Level Denver Center
11:09AM 39.4714 -102.2956 254° West 351 404 36,000  Level Denver Center
11:10AM 39.4467 -102.4114 255° West 341 392 36,000  Level Denver Center
11:11AM 39.4206 -102.5347 255° West 350 403 36,000  Level Denver Center
11:13AM 39.3922 -102.6572 253° West 351 404 36,000  Level Denver Center
11:14AM 39.3578 -102.8222 255° West 353 406 36,000  Level Denver Center
11:15AM 39.3294 -102.9464 254° West 355 409 36,000  Level Denver Center
11:16AM 39.3019 -103.0711 254° West 358 412 36,000  Level Denver Center
11:17AM 39.2742 -103.1947 254° West 356 410 36,000  Level Denver Center
11:18AM 39.2450 -103.3181 253° West 355 409 36,000  Level Denver Center
11:19AM 39.2186 -103.4400 254° West 352 405 36,000  Level Denver Center
11:20AM 39.1906 -103.5633 254° West 354 407 36,000  Level Denver Center
11:21AM 39.1617 -103.6853 253° West 353 406 36,000  Level Denver Center
11:22AM 39.1267 -103.8306 253° West 358 412 36,000  Level Denver Center
11:23AM 39.0981 -103.9556 254° West 360 414 36,000  Level Denver Center
11:24AM 39.0664 -104.0839 252° West 368 423 36,000  Level Denver Center
11:25AM 39.0378 -104.2078 253° West 361 415 36,000  Level Denver Center
11:26AM 39.0094 -104.3319 254° West 358 412 36,000  Level Denver Center
11:27AM 38.9783 -104.4617 253° West 371 427 36,000  Level Denver Center
11:28AM 38.9478 -104.5889 253° West 371 427 36,000  Level Denver Center
11:29AM 38.9181 -104.7142 253° West 365 420 36,000  Level Denver Center
11:30AM 38.8828 -104.8619 253° West 366 421 36,000  Level Denver Center
11:31AM 38.8619 -104.9436 252° West 360 414 36,000  Level Denver Center
11:32AM 38.8211 -105.1131 253° West 367 422 36,000  Level Denver Center
11:33AM 38.7903 -105.2386 253° West 367 422 36,000  Level Denver Center
11:34AM 38.7544 -105.3842 253° West 364 419 36,000  Level Denver Center
11:35AM 38.7228 -105.5103 252° West 367 422 36,000  Level Denver Center
11:37AM 38.6858 -105.6586 252° West 370 426 36,000  Level Denver Center
11:38AM 38.6536 -105.7861 252° West 373 429 36,000  Level Denver Center
11:39AM 38.6267 -105.8939 252° West 376 433 36,000  Level Denver Center
11:40AM 38.5856 -106.0519 252° West 375 432 36,000  Level Denver Center
11:41AM 38.5544 -106.1786 253° West 374 430 36,000  Level Denver Center
11:42AM 38.5256 -106.2881 251° West 375 432 36,000  Level Denver Center
11:43AM 38.4864 -106.4397 252° West 373 429 36,000  Level Denver Center
11:45AM 38.4208 -106.6903 252° West 369 425 36,000  Level Denver Center
11:46AM 38.3869 -106.8167 251° West 374 430 36,000  Level Denver Center
11:47AM 38.3536 -106.9439 252° West 375 432 36,000  Level Denver Center
11:48AM 38.3197 -107.0731 252° West 383 441 36,000  Level Denver Center
11:49AM 38.2836 -107.2069 251° West 381 438 36,000  Level Denver Center
11:50AM 38.2456 -107.3497 251° West 383 441 36,000  Level Denver Center
11:51AM 38.2131 -107.4722 251° West 382 440 36,000  Level Denver Center
11:52AM 38.1733 -107.6181 251° West 388 447 36,000  Level Denver Center
11:53AM 38.1403 -107.7406 251° West 385 443 36,000  Level Denver Center
11:55AM 38.0644 -108.0200 251° West 389 448 36,000  Level Denver Center
11:56AM 38.0303 -108.1419 250° West 386 444 36,000  Level Denver Center
11:57AM 37.9894 -108.2853 250° West 387 445 36,000  Level Denver Center
11:58AM 37.9556 -108.4089 251° West 387 445 36,000  Level Denver Center
11:59AM 37.9153 -108.5531 251° West 389 448 36,000  Level Denver Center
12:00PM 37.8803 -108.6786 251° West 392 451 36,000  Level Denver Center
12:01PM 37.8383 -108.8256 250° West 397 457 36,000  Level Denver Center
12:02PM 37.8033 -108.9503 250° West 395 455 36,000  Level Denver Center
12:03PM 37.7669 -109.0986 253° West 396 456 36,000  Level Denver Center
12:04PM 37.7356 -109.2256 253° West 396 456 36,000  Level Denver Center
12:05PM 37.6983 -109.3753 253° West 400 460 36,000  Level Denver Center
12:07PM 37.6661 -109.5036 252° West 401 461 36,000  Level Denver Center
12:08PM 37.6281 -109.6542 252° West 403 464 36,000  Level Denver Center
12:09PM 37.5964 -109.7808 253° West 398 458 36,000  Level Denver Center
12:10PM 37.5633 -109.9092 252° West 401 461 36,000  Level Denver Center
12:11PM 37.5256 -110.0575 252° West 399 459 36,000  Level Denver Center
12:12PM 37.4922 -110.1847 252° West 400 460 36,000  Level Denver Center
12:13PM 37.4489 -110.3547 252° West 402 463 36,000  Level Denver Center
12:14PM 37.4142 -110.4875 252° West 400 460 36,000  Level Denver Center
12:15PM 37.3794 -110.6211 252° West 402 463 36,000 -300 Level Denver Center
12:16PM 37.3369 -110.7811 252° West 403 464 35,500 -780 Descending Denver Center
12:17PM 37.3014 -110.9133 251° West 400 460 34,500 -1,020 Descending Denver Center
12:18PM 37.2653 -111.0500 252° West 410 472 33,500 -960 Descending Denver Center
12:19PM 37.2294 -111.1858 252° West 411 473 32,600 -780 Descending Denver Center
12:20PM 37.1931 -111.3225 252° West 414 476 32,000 -300 Descending Denver Center
12:21PM 37.1556 -111.4575 251° West 411 473 32,000  Level Denver Center
12:22PM 37.1131 -111.6217 252° West 413 475 32,000  Level Denver Center
12:23PM 37.0822 -111.7594 254° West 413 475 32,000 -420 Level Denver Center
12:26PM 37.0072 -112.0669 253° West 420 483 30,700 -780 Descending Denver Center
12:27PM 36.9717 -112.2086 253° West 425 489 29,700 -960 Descending Los Angeles Center
12:28PM 36.9367 -112.3547 253° West 436 502 28,800 -840 Descending Los Angeles Center
12:29PM 36.8933 -112.5297 253° West 438 504 28,000 -420 Descending Los Angeles Center
12:30PM 36.8575 -112.6758 253° West 438 504 28,000  Level Los Angeles Center
12:31PM 36.8214 -112.8228 253° West 441 507 28,000  Level Los Angeles Center
12:32PM 36.7847 -112.9694 253° West 441 507 28,000  Level Los Angeles Center
12:33PM 36.7469 -113.1167 252° West 444 511 28,000  Level Los Angeles Center
12:34PM 36.7106 -113.2656 253° West 448 516 28,000  Level Los Angeles Center
12:35PM 36.6644 -113.4456 252° West 453 521 28,000 -960 Level Los Angeles Center
12:36PM 36.6256 -113.5944 252° West 453 521 26,100 -2,160 Descending Los Angeles Center
12:37PM 36.5903 -113.7381 253° West 438 504 23,500 -2,520 Descending Los Angeles Center
12:38PM 36.5533 -113.8775 252° West 427 491 20,900 -2,460 Descending Los Angeles Center
12:39PM 36.5183 -114.0089 252° West 406 467 18,500 -2,520 Descending Los Angeles Center
12:40PM 36.4803 -114.1578 252° West 395 455 15,700 -2,580 Descending Los Angeles Center
12:41PM 36.4544 -114.2667 254° West 392 451 13,700 -1,860 Descending Los Angeles Center
12:42PM 36.4239 -114.3814 252° West 368 423 12,500 -1,080 Descending Los Angeles Center
12:42PM 36.4147 -114.4025 242° Southwest 371 427 12,400 -540 Descending Los Angeles Center
12:43PM 36.3842 -114.4753 242° Southwest 314 361 12,000 -420 Descending Los Angeles Center
12:43PM 36.3669 -114.4814 196° South 319 367 12,000  Level Los Angeles Center
12:44PM 36.3036 -114.5028 195° South 304 350 12,000  Level Los Angeles Center
12:44PM 36.2836 -114.5056 186° South 305 351 12,000 -1,020 Level Los Angeles Center
12:45PM 36.2106 -114.5317 196° South 301 346 10,900 -1,200 Descending Los Angeles Center
12:45PM 36.2031 -114.5317 180° South 300 345 10,800 -480 Descending Los Angeles Center
12:46PM 36.1436 -114.5517 195° South 285 328 10,500 -540 Descending Los Angeles Center
12:46PM 36.1097 -114.5603 192° South 292 336 10,300 -840 Descending Los Angeles Center
12:47PM 36.0767 -114.6008 225° Southwest 256 295 9,600 -1,020 Descending Los Angeles Center
12:47PM 36.0750 -114.6208 264° West 259 298 9,300 -1,140 Descending Los Angeles Center
12:48PM 36.0758 -114.6839 271° West 247 284 8,500 -1,080 Descending Los Angeles Center
12:48PM 36.0747 -114.7050 266° West 248 285 8,200 -720 Descending Los Angeles Center
12:49PM 36.0747 -114.7772 270° West 238 274 7,700 -720 Descending Los Angeles Center
12:49PM 36.0733 -114.7861 259° West 242 278 7,500 -780 Descending Los Angeles Center
12:50PM 36.0739 -114.8417 271° West 216 249 7,000 -780 Descending Los Angeles Center
12:50PM 36.0736 -114.8589 269° West 230 265 6,700 -900 Descending Los Angeles Center
12:51PM 36.0742 -114.9028 271° West 197 227 6,200 -780 Descending Los Angeles Center
12:51PM 36.0742 -114.9222 270° West 207 238 5,900 -1,320 Descending Los Angeles Center
12:52PM 36.0739 -114.9694 270° West 192 221 4,900 -1,680 Descending Los Angeles Center
12:52PM 36.0739 -114.9992 270° West 192 221 4,200 -1,260 Descending Los Angeles Center
12:53PM 36.0739 -115.0386 270° West 182 209 3,500 -1,080 Descending Los Angeles Center
12:53PM 36.0742 -115.0617 271° West 187 215 3,100 -1,020 Descending Los Angeles Center
12:54PM 36.0739 -115.0892 269° West 159 183 2,600 -900 Descending Los Angeles Center
12:55PM 36.0739 -115.1161 270° West 175 201 2,200 -780 Descending Los Angeles Center
12:57PM 36.0667 -115.1500 219° Southwest  Level FlightAware Approximate